Ek-star — LAMT5 — position and weather

sailwx.info

Track history (hours):
 
Tides and Currents Weather Stations Pressure Air Temp Water Temp Dewpoint Dewpoint Depression Visibility Wind Speed Wind Dir Waves Ship Positions

Ek-star

Last reported at 2016-Jun-30 13:16 UTC. Time now 2016-Jun-30 14:14 UTC.
Position N 51°56' E 004°12'.

Length 135 m; draft 6 m.

Type: Ship. MMSI: 257433000.

Date/timePositionNaut miles runAvg speedWind from/ knotsBaromVisibWave heightAir tempDewpointWater temp
2016-Jun-30 13:16N 51°56' E 004°12'0 0.0
2016-Jun-30 07:25N 51°56' E 004°12'0 0.0
2016-Jun-30 06:24N 51°56' E 004°12'0 0.0
2016-Jun-30 05:33N 51°56' E 004°12'0 0.0
2016-Jun-30 04:32N 51°56' E 004°12'0 0.0
2016-Jun-30 03:32N 51°56' E 004°12'0 0.0
2016-Jun-30 02:30N 51°56' E 004°12'0 0.1
2016-Jun-30 01:33N 51°56' E 004°12'4 4.0
2016-Jun-30 00:33N 51°58' E 004°06'1010.1
2016-Jun-29 23:33N 52°00' E 003°50'9 9.3
2016-Jun-29 22:33N 52°09' E 003°46'1110.5
2016-Jun-29 21:33N 52°20' E 003°48'1110.0
2016-Jun-29 20:30N 52°30' E 003°51'9011.1
2016-Jun-29 12:25N 53°52' E 004°50'1112.3
2016-Jun-29 11:33N 54°03' E 004°56'1312.5
2016-Jun-29 10:32N 54°14' E 005°05'28711.5
2016-Jun-28 09:33N 57°49' E 010°45'1110.9
2016-Jun-28 08:33N 57°42' E 011°00'1212.0
2016-Jun-28 07:33N 57°34' E 011°16'1212.3
2016-Jun-28 06:33N 57°24' E 011°30'2612.8
2016-Jun-28 04:33N 56°59' E 011°45'1212.1
2016-Jun-28 03:33N 56°48' E 011°53'1111.4
2016-Jun-28 02:33N 56°37' E 011°45'8211.6
2016-Jun-27 19:25N 55°18' E 011°03'1011.6
2016-Jun-27 18:33N 55°08' E 011°03'1312.4
2016-Jun-27 17:33N 54°56' E 010°57'1212.6
2016-Jun-27 16:34N 54°44' E 010°53'1211.7
2016-Jun-27 15:33N 54°37' E 011°08'1312.6
2016-Jun-27 14:34N 54°31' E 011°28'1212.3
2016-Jun-27 13:34N 54°26' E 011°47'1212.0
2016-Jun-27 12:33N 54°26' E 012°08'6011.4
2016-Jun-27 07:16N 54°58' E 013°37'912.5
2016-Jun-27 06:33N 55°02' E 013°51'1111.4
2016-Jun-27 05:33N 55°08' E 014°07'1211.8
2016-Jun-27 04:33N 55°17' E 014°21'1312.5
2016-Jun-27 03:33N 55°27' E 014°35'1312.6
2016-Jun-27 02:33N 55°34' E 014°54'1312.6
2016-Jun-27 01:33N 55°39' E 015°14'1312.4
2016-Jun-27 00:33N 55°45' E 015°33'1312.2
2016-Jun-26 23:29N 55°52' E 015°53'1112.2
2016-Jun-26 22:33N 55°57' E 016°10'  
2016-Jun-23 13:10N 55°50' E 016°02'813.5
2016-Jun-23 12:33N 55°46' E 015°49'1313.3
2016-Jun-23 11:34N 55°40' E 015°29'1413.7
2016-Jun-23 10:33N 55°33' E 015°07'1313.5
2016-Jun-23 09:33N 55°26' E 014°47'1313.4
2016-Jun-23 08:33N 55°17' E 014°30'1313.4
2016-Jun-23 07:34N 55°07' E 014°15'2613.1
2016-Jun-23 05:33N 54°54' E 013°35'1313.1
2016-Jun-23 04:33N 54°50' E 013°13'1312.7
2016-Jun-23 03:33N 54°46' E 012°52'1313.1
2016-Jun-23 02:33N 54°40' E 012°32'1313.0
2016-Jun-23 01:33N 54°31' E 012°16'1211.5
2016-Jun-23 00:33N 54°25' E 011°59'1313.0
2016-Jun-22 23:33N 54°27' E 011°38'1312.9
2016-Jun-22 22:33N 54°32' E 011°17'1212.4
2016-Jun-22 21:33N 54°35' E 010°56'1313.3
2016-Jun-22 20:33N 54°33' E 010°34'1211.8
2016-Jun-22 19:33N 54°27' E 010°16'7 6.8
2016-Jun-22 18:34N 54°22' E 010°08'0 0.5
2016-Jun-22 17:31N 54°22' E 010°08'0 0.0
2016-Jun-22 16:31N 54°22' E 010°08'0 0.0
2016-Jun-22 15:31N 54°22' E 010°08'4 4.3
2016-Jun-22 14:33N 54°21' E 010°00'8 7.7
2016-Jun-22 13:33N 54°22' E 009°47'21 6.7
2016-Jun-22 10:21N 54°08' E 009°20'7 8.1
2016-Jun-22 09:32N 54°01' E 009°18'8 8.1
2016-Jun-22 08:33N 53°54' E 009°10'2 1.7
2016-Jun-22 07:34N 53°53' E 009°08'8 7.9
2016-Jun-22 06:34N 53°51' E 008°56'1010.3
2016-Jun-22 05:33N 53°55' E 008°40'1212.0
2016-Jun-22 04:33N 53°59' E 008°21'1010.0
2016-Jun-22 03:33N 54°02' E 008°05'1 1.4
2016-Jun-22 02:32N 54°03' E 008°06'0 0.0
2016-Jun-22 01:26N 54°03' E 008°06'0 0.1
2016-Jun-22 00:32N 54°03' E 008°06'0 0.1
2016-Jun-21 23:20N 54°03' E 008°06'0 0.0
2016-Jun-21 22:29N 54°03' E 008°06'0 0.0
2016-Jun-21 21:32N 54°03' E 008°06'0 0.0
2016-Jun-21 20:29N 54°03' E 008°06'0 0.1
2016-Jun-21 19:29N 54°03' E 008°06'0 0.0
2016-Jun-21 18:32N 54°03' E 008°06'0 0.0
2016-Jun-21 17:26N 54°03' E 008°06'0 0.0
2016-Jun-21 16:32N 54°03' E 008°06'0 0.0
2016-Jun-21 15:32N 54°03' E 008°06'0 0.0
2016-Jun-21 14:32N 54°03' E 008°06'0 0.0
2016-Jun-21 13:32N 54°03' E 008°06'0 0.1
2016-Jun-21 12:32N 54°03' E 008°06'0 0.0
2016-Jun-21 11:23N 54°03' E 008°06'0 0.0
2016-Jun-21 10:32N 54°03' E 008°06'0 0.0
2016-Jun-21 09:32N 54°03' E 008°06'0 0.0
2016-Jun-21 08:32N 54°03' E 008°07'0 0.0
2016-Jun-21 07:32N 54°03' E 008°07'0 0.1
2016-Jun-21 04:32N 54°03' E 008°06'0 0.0
2016-Jun-21 03:32N 54°03' E 008°06'0 0.1
2016-Jun-21 02:33N 54°03' E 008°06'0 0.1
2016-Jun-21 01:33N 54°03' E 008°07'0 0.0
2016-Jun-21 00:33N 54°03' E 008°07'0 0.0
2016-Jun-20 23:33N 54°03' E 008°07'0 0.0
2016-Jun-20 22:27N 54°03' E 008°07'0 0.0
2016-Jun-20 21:30N 54°03' E 008°07'0 0.0
2016-Jun-20 20:33N 54°03' E 008°07'0 0.0
2016-Jun-20 19:33N 54°03' E 008°06'0 0.1
2016-Jun-20 18:33N 54°03' E 008°06'0 0.1
2016-Jun-20 17:33N 54°03' E 008°06'0 0.0
2016-Jun-20 16:33N 54°03' E 008°06'0 0.0
2016-Jun-20 15:33N 54°03' E 008°06'0 0.0
2016-Jun-20 14:33N 54°03' E 008°06'0 0.0
2016-Jun-20 13:33N 54°03' E 008°06'  
Track history (hours):
 
Tides and Currents Weather Stations Pressure Air Temp Water Temp Dewpoint Dewpoint Depression Visibility Wind Speed Wind Dir Waves Ship Positions

Ek-star

Last reported at 2016-Jun-30 13:16 UTC. Time now 2016-Jun-30 14:14 UTC.
Position N 51°56' E 004°12'.

Length 135 m; draft 6 m.

Type: Ship. MMSI: 257433000.

Date/timePositionNaut miles runAvg speedWind from/ knotsBaromVisibWave heightAir tempDewpointWater temp
2016-Jun-30 13:16N 51°56' E 004°12'0 0.0
2016-Jun-30 07:25N 51°56' E 004°12'0 0.0
2016-Jun-30 06:24N 51°56' E 004°12'0 0.0
2016-Jun-30 05:33N 51°56' E 004°12'0 0.0
2016-Jun-30 04:32N 51°56' E 004°12'0 0.0
2016-Jun-30 03:32N 51°56' E 004°12'0 0.0
2016-Jun-30 02:30N 51°56' E 004°12'0 0.1
2016-Jun-30 01:33N 51°56' E 004°12'4 4.0
2016-Jun-30 00:33N 51°58' E 004°06'1010.1
2016-Jun-29 23:33N 52°00' E 003°50'9 9.3
2016-Jun-29 22:33N 52°09' E 003°46'1110.5
2016-Jun-29 21:33N 52°20' E 003°48'1110.0
2016-Jun-29 20:30N 52°30' E 003°51'9011.1
2016-Jun-29 12:25N 53°52' E 004°50'1112.3
2016-Jun-29 11:33N 54°03' E 004°56'1312.5
2016-Jun-29 10:32N 54°14' E 005°05'28711.5
2016-Jun-28 09:33N 57°49' E 010°45'1110.9
2016-Jun-28 08:33N 57°42' E 011°00'1212.0
2016-Jun-28 07:33N 57°34' E 011°16'1212.3
2016-Jun-28 06:33N 57°24' E 011°30'2612.8
2016-Jun-28 04:33N 56°59' E 011°45'1212.1
2016-Jun-28 03:33N 56°48' E 011°53'1111.4
2016-Jun-28 02:33N 56°37' E 011°45'8211.6
2016-Jun-27 19:25N 55°18' E 011°03'1011.6
2016-Jun-27 18:33N 55°08' E 011°03'1312.4
2016-Jun-27 17:33N 54°56' E 010°57'1212.6
2016-Jun-27 16:34N 54°44' E 010°53'1211.7
2016-Jun-27 15:33N 54°37' E 011°08'1312.6
2016-Jun-27 14:34N 54°31' E 011°28'1212.3
2016-Jun-27 13:34N 54°26' E 011°47'1212.0
2016-Jun-27 12:33N 54°26' E 012°08'6011.4
2016-Jun-27 07:16N 54°58' E 013°37'912.5
2016-Jun-27 06:33N 55°02' E 013°51'1111.4
2016-Jun-27 05:33N 55°08' E 014°07'1211.8
2016-Jun-27 04:33N 55°17' E 014°21'1312.5
2016-Jun-27 03:33N 55°27' E 014°35'1312.6
2016-Jun-27 02:33N 55°34' E 014°54'1312.6
2016-Jun-27 01:33N 55°39' E 015°14'1312.4
2016-Jun-27 00:33N 55°45' E 015°33'1312.2
2016-Jun-26 23:29N 55°52' E 015°53'1112.2
2016-Jun-26 22:33N 55°57' E 016°10'  
2016-Jun-23 13:10N 55°50' E 016°02'813.5
2016-Jun-23 12:33N 55°46' E 015°49'1313.3
2016-Jun-23 11:34N 55°40' E 015°29'1413.7
2016-Jun-23 10:33N 55°33' E 015°07'1313.5
2016-Jun-23 09:33N 55°26' E 014°47'1313.4
2016-Jun-23 08:33N 55°17' E 014°30'1313.4
2016-Jun-23 07:34N 55°07' E 014°15'2613.1
2016-Jun-23 05:33N 54°54' E 013°35'1313.1
2016-Jun-23 04:33N 54°50' E 013°13'1312.7
2016-Jun-23 03:33N 54°46' E 012°52'1313.1
2016-Jun-23 02:33N 54°40' E 012°32'1313.0
2016-Jun-23 01:33N 54°31' E 012°16'1211.5
2016-Jun-23 00:33N 54°25' E 011°59'1313.0
2016-Jun-22 23:33N 54°27' E 011°38'1312.9
2016-Jun-22 22:33N 54°32' E 011°17'1212.4
2016-Jun-22 21:33N 54°35' E 010°56'1313.3
2016-Jun-22 20:33N 54°33' E 010°34'1211.8
2016-Jun-22 19:33N 54°27' E 010°16'7 6.8
2016-Jun-22 18:34N 54°22' E 010°08'0 0.5
2016-Jun-22 17:31N 54°22' E 010°08'0 0.0
2016-Jun-22 16:31N 54°22' E 010°08'0 0.0
2016-Jun-22 15:31N 54°22' E 010°08'4 4.3
2016-Jun-22 14:33N 54°21' E 010°00'8 7.7
2016-Jun-22 13:33N 54°22' E 009°47'21 6.7
2016-Jun-22 10:21N 54°08' E 009°20'7 8.1
2016-Jun-22 09:32N 54°01' E 009°18'8 8.1
2016-Jun-22 08:33N 53°54' E 009°10'2 1.7
2016-Jun-22 07:34N 53°53' E 009°08'8 7.9
2016-Jun-22 06:34N 53°51' E 008°56'1010.3
2016-Jun-22 05:33N 53°55' E 008°40'1212.0
2016-Jun-22 04:33N 53°59' E 008°21'1010.0
2016-Jun-22 03:33N 54°02' E 008°05'1 1.4
2016-Jun-22 02:32N 54°03' E 008°06'0 0.0
2016-Jun-22 01:26N 54°03' E 008°06'0 0.1
2016-Jun-22 00:32N 54°03' E 008°06'0 0.1
2016-Jun-21 23:20N 54°03' E 008°06'0 0.0
2016-Jun-21 22:29N 54°03' E 008°06'0 0.0
2016-Jun-21 21:32N 54°03' E 008°06'0 0.0
2016-Jun-21 20:29N 54°03' E 008°06'0 0.1
2016-Jun-21 19:29N 54°03' E 008°06'0 0.0
2016-Jun-21 18:32N 54°03' E 008°06'0 0.0
2016-Jun-21 17:26N 54°03' E 008°06'0 0.0
2016-Jun-21 16:32N 54°03' E 008°06'0 0.0
2016-Jun-21 15:32N 54°03' E 008°06'0 0.0
2016-Jun-21 14:32N 54°03' E 008°06'0 0.0
2016-Jun-21 13:32N 54°03' E 008°06'0 0.1
2016-Jun-21 12:32N 54°03' E 008°06'0 0.0
2016-Jun-21 11:23N 54°03' E 008°06'0 0.0
2016-Jun-21 10:32N 54°03' E 008°06'0 0.0
2016-Jun-21 09:32N 54°03' E 008°06'0 0.0
2016-Jun-21 08:32N 54°03' E 008°07'0 0.0
2016-Jun-21 07:32N 54°03' E 008°07'0 0.1
2016-Jun-21 04:32N 54°03' E 008°06'0 0.0
2016-Jun-21 03:32N 54°03' E 008°06'0 0.1
2016-Jun-21 02:33N 54°03' E 008°06'0 0.1
2016-Jun-21 01:33N 54°03' E 008°07'0 0.0
2016-Jun-21 00:33N 54°03' E 008°07'0 0.0
2016-Jun-20 23:33N 54°03' E 008°07'0 0.0
2016-Jun-20 22:27N 54°03' E 008°07'0 0.0
2016-Jun-20 21:30N 54°03' E 008°07'0 0.0
2016-Jun-20 20:33N 54°03' E 008°07'0 0.0
2016-Jun-20 19:33N 54°03' E 008°06'0 0.1
2016-Jun-20 18:33N 54°03' E 008°06'0 0.1
2016-Jun-20 17:33N 54°03' E 008°06'0 0.0
2016-Jun-20 16:33N 54°03' E 008°06'0 0.0
2016-Jun-20 15:33N 54°03' E 008°06'0 0.0
2016-Jun-20 14:33N 54°03' E 008°06'0 0.0
2016-Jun-20 13:33N 54°03' E 008°06'  

Dump ship's entire track history